Terminal Aerodrome Forecast
Issued by NWS

Home | Current Version | Previous Version | Text Only | Print | Product List | Glossary On
Versions: 1 2 3 4 5 6 7 8 9 10 11 12 13 14 15 16 17 18 19 20
572
FTPA31 PHFO 281244 AAA
TAFHLI
TAF AMD
PHLI 281244Z 2813/2912 10005KT P6SM SCT015
      TEMPO 2813/2815 BKN015
     FM290400 03008KT P6SM SCT025 BKN040
     FM290900 30005KT P6SM SCT025 BKN040=

USA.gov is the U.S. government's official web portal to all federal, state and local government web resources and services.